X  Sluiten METAR luchtvaart weer gegevens      EHGG Eelde Airport
Temperatuur
16°C Temperatuur
10°C Dauwpunt
68% Vochtigheid



Wind
34 KM/U
21 MPH
9 M/S
18 KTS



220°
ZW
Huidig weer

Wat bewolking Wat bewolking
Luchtdruk 1007.92 (hPa) - 29.76 (inHg)
Zicht 6.2 (mijl) - 10 (km)
Vliegveld
Vliegveld code EHGG

Locatie : Eelde Airport
Afstand: 14 (km)

Metar:
EHGG 221325Z AUTO 22018KT 9999 FEW026 BKN029 BKN033 16/10 Q1008 NOSIG

Tijd: 22-10-2020 15:25 CEST